Open Full Screen Window  High Contrast Mode
August 17, 2018 6:04 AM CDT
Weather Information
Wind Direction
  ---
Wind Speed
  00 kt (0 mph)
Wind Gust
  00 kt (0 mph)
Altimeter
30.01 in
Visibility
10 SM
Temperature
20° C
68° F
Dewpoint
18° C
64° F
Humidity
88%
1hr Rain Fall
00.00 in.
24hr Rain Fall
00.06 in.
Sky Condition
Clear
VFR

METAR KSGS 171104Z AUTO 00000KT 10SM CLR 20/18 A3001 RMK AO2 T01950179

FAA Disclaimer: The data displayed is for advisory purposes only and is not to be used for flight planning or operations.